sensor_id;sensor_type;location;lat;lon;timestamp;P1;durP1;ratioP1;P2;durP2;ratioP2
2061;SDS011;11070;51.336;12.340;2023-05-10T00:00:58;6.20;;;5.60;;
2061;SDS011;11070;51.336;12.340;2023-05-10T00:03:24;6.45;;;5.70;;
2061;SDS011;11070;51.336;12.340;2023-05-10T00:05:50;6.23;;;5.63;;
2061;SDS011;11070;51.336;12.340;2023-05-10T00:08:15;7.43;;;6.23;;
2061;SDS011;11070;51.336;12.340;2023-05-10T00:10:41;9.30;;;5.73;;
2061;SDS011;11070;51.336;12.340;2023-05-10T00:13:06;7.50;;;6.07;;
2061;SDS011;11070;51.336;12.340;2023-05-10T00:15:32;7.40;;;5.67;;
2061;SDS011;11070;51.336;12.340;2023-05-10T00:17:59;6.95;;;5.93;;
2061;SDS011;11070;51.336;12.340;2023-05-10T00:20:25;7.35;;;6.40;;
2061;SDS011;11070;51.336;12.340;2023-05-10T00:22:51;6.73;;;6.03;;
2061;SDS011;11070;51.336;12.340;2023-05-10T00:25:17;6.67;;;6.07;;
2061;SDS011;11070;51.336;12.340;2023-05-10T00:27:42;6.80;;;6.20;;
2061;SDS011;11070;51.336;12.340;2023-05-10T00:30:08;6.80;;;6.20;;
2061;SDS011;11070;51.336;12.340;2023-05-10T00:32:34;6.60;;;5.77;;
2061;SDS011;11070;51.336;12.340;2023-05-10T00:35:00;6.17;;;5.57;;
2061;SDS011;11070;51.336;12.340;2023-05-10T00:37:25;9.30;;;6.20;;
2061;SDS011;11070;51.336;12.340;2023-05-10T00:39:51;6.67;;;6.07;;
2061;SDS011;11070;51.336;12.340;2023-05-10T00:42:17;12.03;;;6.53;;
2061;SDS011;11070;51.336;12.340;2023-05-10T00:44:42;7.07;;;5.73;;
2061;SDS011;11070;51.336;12.340;2023-05-10T00:47:08;6.50;;;5.93;;
2061;SDS011;11070;51.336;12.340;2023-05-10T00:49:34;6.78;;;6.18;;
2061;SDS011;11070;51.336;12.340;2023-05-10T00:52:01;6.47;;;5.90;;
2061;SDS011;11070;51.336;12.340;2023-05-10T00:54:28;7.72;;;6.25;;
2061;SDS011;11070;51.336;12.340;2023-05-10T00:56:54;5.97;;;5.47;;
2061;SDS011;11070;51.336;12.340;2023-05-10T00:59:19;6.27;;;5.67;;
2061;SDS011;11070;51.336;12.340;2023-05-10T01:01:46;6.88;;;6.18;;
2061;SDS011;11070;51.336;12.340;2023-05-10T01:04:13;7.40;;;6.35;;
2061;SDS011;11070;51.336;12.340;2023-05-10T01:06:39;7.30;;;5.97;;
2061;SDS011;11070;51.336;12.340;2023-05-10T01:09:06;6.82;;;6.13;;
2061;SDS011;11070;51.336;12.340;2023-05-10T01:11:35;8.17;;;6.50;;
2061;SDS011;11070;51.336;12.340;2023-05-10T01:14:01;7.30;;;6.60;;
2061;SDS011;11070;51.336;12.340;2023-05-10T01:16:28;7.88;;;5.90;;
2061;SDS011;11070;51.336;12.340;2023-05-10T01:18:56;7.00;;;6.30;;
2061;SDS011;11070;51.336;12.340;2023-05-10T01:21:43;6.33;;;5.83;;
2061;SDS011;11070;51.336;12.340;2023-05-10T01:24:33;7.07;;;6.38;;
2061;SDS011;11070;51.336;12.340;2023-05-10T01:37:50;6.75;;;6.15;;
2061;SDS011;11070;51.336;12.340;2023-05-10T01:40:29;7.80;;;6.07;;
2061;SDS011;11070;51.336;12.340;2023-05-10T01:43:11;6.40;;;5.40;;
2061;SDS011;11070;51.336;12.340;2023-05-10T01:45:55;6.35;;;5.70;;
2061;SDS011;11070;51.336;12.340;2023-05-10T01:48:29;6.55;;;5.97;;
2061;SDS011;11070;51.336;12.340;2023-05-10T01:50:56;6.70;;;6.10;;
2061;SDS011;11070;51.336;12.340;2023-05-10T01:53:23;8.15;;;5.97;;
2061;SDS011;11070;51.336;12.340;2023-05-10T01:55:50;9.13;;;6.13;;
2061;SDS011;11070;51.336;12.340;2023-05-10T01:58:20;6.50;;;5.75;;
2061;SDS011;11070;51.336;12.340;2023-05-10T02:00:50;7.30;;;5.93;;
2061;SDS011;11070;51.336;12.340;2023-05-10T02:03:17;6.90;;;6.18;;
2061;SDS011;11070;51.336;12.340;2023-05-10T02:05:46;6.93;;;6.20;;
2061;SDS011;11070;51.336;12.340;2023-05-10T02:08:14;8.10;;;6.40;;
2061;SDS011;11070;51.336;12.340;2023-05-10T02:10:42;7.25;;;6.50;;
2061;SDS011;11070;51.336;12.340;2023-05-10T02:13:10;6.72;;;6.00;;
2061;SDS011;11070;51.336;12.340;2023-05-10T02:15:37;6.75;;;6.15;;
2061;SDS011;11070;51.336;12.340;2023-05-10T02:18:05;6.45;;;5.85;;
2061;SDS011;11070;51.336;12.340;2023-05-10T02:20:31;6.50;;;5.90;;
2061;SDS011;11070;51.336;12.340;2023-05-10T02:22:58;6.30;;;5.80;;
2061;SDS011;11070;51.336;12.340;2023-05-10T02:25:24;6.40;;;5.80;;
2061;SDS011;11070;51.336;12.340;2023-05-10T02:27:51;7.25;;;6.45;;
2061;SDS011;11070;51.336;12.340;2023-05-10T02:30:20;7.15;;;6.20;;
2061;SDS011;11070;51.336;12.340;2023-05-10T02:32:46;7.38;;;6.65;;
2061;SDS011;11070;51.336;12.340;2023-05-10T02:35:13;6.88;;;6.28;;
2061;SDS011;11070;51.336;12.340;2023-05-10T02:37:40;6.43;;;5.90;;
2061;SDS011;11070;51.336;12.340;2023-05-10T02:40:07;7.30;;;6.18;;
2061;SDS011;11070;51.336;12.340;2023-05-10T02:42:35;7.30;;;6.60;;
2061;SDS011;11070;51.336;12.340;2023-05-10T02:45:03;7.30;;;6.57;;
2061;SDS011;11070;51.336;12.340;2023-05-10T02:47:32;7.70;;;6.32;;
2061;SDS011;11070;51.336;12.340;2023-05-10T02:49:59;7.72;;;6.93;;
2061;SDS011;11070;51.336;12.340;2023-05-10T02:52:25;6.23;;;5.50;;
2061;SDS011;11070;51.336;12.340;2023-05-10T02:54:58;9.75;;;6.38;;
2061;SDS011;11070;51.336;12.340;2023-05-10T02:57:28;7.15;;;6.25;;
2061;SDS011;11070;51.336;12.340;2023-05-10T02:59:58;6.43;;;5.78;;
2061;SDS011;11070;51.336;12.340;2023-05-10T03:02:25;7.35;;;6.50;;
2061;SDS011;11070;51.336;12.340;2023-05-10T03:04:51;7.55;;;6.30;;
2061;SDS011;11070;51.336;12.340;2023-05-10T03:07:17;6.80;;;6.10;;
2061;SDS011;11070;51.336;12.340;2023-05-10T03:09:46;7.15;;;6.45;;
2061;SDS011;11070;51.336;12.340;2023-05-10T03:12:19;8.18;;;6.07;;
2061;SDS011;11070;51.336;12.340;2023-05-10T03:17:55;7.03;;;6.32;;
2061;SDS011;11070;51.336;12.340;2023-05-10T03:20:29;9.40;;;6.13;;
2061;SDS011;11070;51.336;12.340;2023-05-10T03:25:36;7.03;;;6.32;;
2061;SDS011;11070;51.336;12.340;2023-05-10T03:28:04;7.35;;;6.30;;
2061;SDS011;11070;51.336;12.340;2023-05-10T03:30:31;6.65;;;6.05;;
2061;SDS011;11070;51.336;12.340;2023-05-10T03:32:58;7.93;;;6.75;;
2061;SDS011;11070;51.336;12.340;2023-05-10T03:35:30;6.88;;;6.28;;
2061;SDS011;11070;51.336;12.340;2023-05-10T03:37:56;7.60;;;6.90;;
2061;SDS011;11070;51.336;12.340;2023-05-10T03:40:22;8.23;;;6.90;;
2061;SDS011;11070;51.336;12.340;2023-05-10T03:42:48;7.30;;;6.57;;
2061;SDS011;11070;51.336;12.340;2023-05-10T03:45:14;7.90;;;7.03;;
2061;SDS011;11070;51.336;12.340;2023-05-10T03:47:40;7.43;;;6.30;;
2061;SDS011;11070;51.336;12.340;2023-05-10T03:50:06;6.90;;;6.13;;
2061;SDS011;11070;51.336;12.340;2023-05-10T03:52:32;7.65;;;6.30;;
2061;SDS011;11070;51.336;12.340;2023-05-10T03:54:57;9.63;;;6.73;;
2061;SDS011;11070;51.336;12.340;2023-05-10T03:57:23;7.43;;;6.50;;
2061;SDS011;11070;51.336;12.340;2023-05-10T03:59:49;8.07;;;6.90;;
2061;SDS011;11070;51.336;12.340;2023-05-10T04:02:15;6.30;;;5.70;;
2061;SDS011;11070;51.336;12.340;2023-05-10T04:04:40;12.80;;;7.83;;
2061;SDS011;11070;51.336;12.340;2023-05-10T04:07:06;6.83;;;6.20;;
2061;SDS011;11070;51.336;12.340;2023-05-10T04:09:32;6.70;;;6.00;;
2061;SDS011;11070;51.336;12.340;2023-05-10T04:11:58;7.10;;;6.40;;
2061;SDS011;11070;51.336;12.340;2023-05-10T04:14:25;8.85;;;6.70;;
2061;SDS011;11070;51.336;12.340;2023-05-10T04:16:51;7.07;;;6.37;;
2061;SDS011;11070;51.336;12.340;2023-05-10T04:19:16;9.23;;;6.53;;
2061;SDS011;11070;51.336;12.340;2023-05-10T04:21:42;6.83;;;6.10;;
2061;SDS011;11070;51.336;12.340;2023-05-10T04:24:08;7.50;;;6.33;;
2061;SDS011;11070;51.336;12.340;2023-05-10T04:26:33;6.83;;;6.10;;
2061;SDS011;11070;51.336;12.340;2023-05-10T04:28:59;8.03;;;6.80;;
2061;SDS011;11070;51.336;12.340;2023-05-10T04:31:25;6.93;;;6.23;;
2061;SDS011;11070;51.336;12.340;2023-05-10T04:33:51;6.43;;;5.82;;
2061;SDS011;11070;51.336;12.340;2023-05-10T04:36:17;6.70;;;6.00;;
2061;SDS011;11070;51.336;12.340;2023-05-10T04:38:42;6.40;;;5.80;;
2061;SDS011;11070;51.336;12.340;2023-05-10T04:41:09;11.00;;;5.90;;
2061;SDS011;11070;51.336;12.340;2023-05-10T04:43:35;6.82;;;5.88;;
2061;SDS011;11070;51.336;12.340;2023-05-10T04:46:02;7.60;;;6.47;;
2061;SDS011;11070;51.336;12.340;2023-05-10T04:48:27;6.80;;;5.90;;
2061;SDS011;11070;51.336;12.340;2023-05-10T04:50:53;12.30;;;6.77;;
2061;SDS011;11070;51.336;12.340;2023-05-10T04:53:19;10.20;;;6.53;;
2061;SDS011;11070;51.336;12.340;2023-05-10T04:55:45;13.50;;;6.27;;
2061;SDS011;11070;51.336;12.340;2023-05-10T04:58:11;7.97;;;5.95;;
2061;SDS011;11070;51.336;12.340;2023-05-10T05:00:37;6.63;;;5.97;;
2061;SDS011;11070;51.336;12.340;2023-05-10T05:03:03;8.50;;;5.70;;
2061;SDS011;11070;51.336;12.340;2023-05-10T05:05:28;6.10;;;5.53;;
2061;SDS011;11070;51.336;12.340;2023-05-10T05:07:54;9.90;;;6.10;;
2061;SDS011;11070;51.336;12.340;2023-05-10T05:10:20;6.57;;;5.90;;
2061;SDS011;11070;51.336;12.340;2023-05-10T05:12:45;10.60;;;7.00;;
2061;SDS011;11070;51.336;12.340;2023-05-10T05:15:11;7.47;;;5.90;;
2061;SDS011;11070;51.336;12.340;2023-05-10T05:17:36;9.23;;;5.90;;
2061;SDS011;11070;51.336;12.340;2023-05-10T05:20:02;7.30;;;5.70;;
2061;SDS011;11070;51.336;12.340;2023-05-10T05:22:28;6.68;;;5.95;;
2061;SDS011;11070;51.336;12.340;2023-05-10T05:24:54;5.43;;;4.97;;
2061;SDS011;11070;51.336;12.340;2023-05-10T05:27:21;6.35;;;5.43;;
2061;SDS011;11070;51.336;12.340;2023-05-10T05:29:49;6.32;;;5.03;;
2061;SDS011;11070;51.336;12.340;2023-05-10T05:32:17;6.43;;;5.82;;
2061;SDS011;11070;51.336;12.340;2023-05-10T05:34:44;5.97;;;5.40;;
2061;SDS011;11070;51.336;12.340;2023-05-10T05:37:14;6.55;;;5.68;;
2061;SDS011;11070;51.336;12.340;2023-05-10T05:39:40;6.13;;;5.53;;
2061;SDS011;11070;51.336;12.340;2023-05-10T05:42:07;13.18;;;5.50;;
2061;SDS011;11070;51.336;12.340;2023-05-10T05:44:34;7.50;;;6.03;;
2061;SDS011;11070;51.336;12.340;2023-05-10T05:46:59;6.57;;;6.07;;
2061;SDS011;11070;51.336;12.340;2023-05-10T05:49:25;6.17;;;5.57;;
2061;SDS011;11070;51.336;12.340;2023-05-10T05:51:50;5.87;;;5.37;;
2061;SDS011;11070;51.336;12.340;2023-05-10T05:54:16;9.87;;;5.80;;
2061;SDS011;11070;51.336;12.340;2023-05-10T05:56:53;7.85;;;5.68;;
2061;SDS011;11070;51.336;12.340;2023-05-10T05:59:22;6.75;;;5.88;;
2061;SDS011;11070;51.336;12.340;2023-05-10T06:01:49;7.78;;;5.95;;
2061;SDS011;11070;51.336;12.340;2023-05-10T06:04:14;8.40;;;5.90;;
2061;SDS011;11070;51.336;12.340;2023-05-10T06:06:41;6.60;;;5.88;;
2061;SDS011;11070;51.336;12.340;2023-05-10T06:09:07;6.75;;;5.97;;
2061;SDS011;11070;51.336;12.340;2023-05-10T06:11:33;10.85;;;5.90;;
2061;SDS011;11070;51.336;12.340;2023-05-10T06:13:59;9.93;;;6.13;;
2061;SDS011;11070;51.336;12.340;2023-05-10T06:16:25;7.72;;;5.85;;
2061;SDS011;11070;51.336;12.340;2023-05-10T06:18:51;6.63;;;6.03;;
2061;SDS011;11070;51.336;12.340;2023-05-10T06:21:17;9.13;;;6.00;;
2061;SDS011;11070;51.336;12.340;2023-05-10T06:23:42;6.30;;;5.80;;
2061;SDS011;11070;51.336;12.340;2023-05-10T06:26:09;8.30;;;5.90;;
2061;SDS011;11070;51.336;12.340;2023-05-10T06:28:34;6.82;;;5.85;;
2061;SDS011;11070;51.336;12.340;2023-05-10T06:31:03;6.15;;;5.55;;
2061;SDS011;11070;51.336;12.340;2023-05-10T06:33:29;6.50;;;5.90;;
2061;SDS011;11070;51.336;12.340;2023-05-10T06:35:55;18.63;;;7.43;;
2061;SDS011;11070;51.336;12.340;2023-05-10T06:38:20;7.43;;;5.47;;
2061;SDS011;11070;51.336;12.340;2023-05-10T06:40:46;6.67;;;5.20;;
2061;SDS011;11070;51.336;12.340;2023-05-10T06:43:12;5.87;;;5.37;;
2061;SDS011;11070;51.336;12.340;2023-05-10T06:45:38;9.50;;;6.40;;
2061;SDS011;11070;51.336;12.340;2023-05-10T06:48:03;11.90;;;5.80;;
2061;SDS011;11070;51.336;12.340;2023-05-10T06:50:29;6.93;;;5.30;;
2061;SDS011;11070;51.336;12.340;2023-05-10T06:52:55;15.87;;;6.30;;
2061;SDS011;11070;51.336;12.340;2023-05-10T06:55:21;9.63;;;5.53;;
2061;SDS011;11070;51.336;12.340;2023-05-10T06:57:46;6.60;;;5.90;;
2061;SDS011;11070;51.336;12.340;2023-05-10T07:00:13;5.70;;;5.20;;
2061;SDS011;11070;51.336;12.340;2023-05-10T07:02:39;6.45;;;5.25;;
2061;SDS011;11070;51.336;12.340;2023-05-10T07:05:05;6.40;;;5.60;;
2061;SDS011;11070;51.336;12.340;2023-05-10T07:07:31;7.53;;;5.07;;
2061;SDS011;11070;51.336;12.340;2023-05-10T07:09:56;5.90;;;5.27;;
2061;SDS011;11070;51.336;12.340;2023-05-10T07:12:22;6.57;;;4.93;;
2061;SDS011;11070;51.336;12.340;2023-05-10T07:14:49;6.15;;;5.55;;
2061;SDS011;11070;51.336;12.340;2023-05-10T07:17:14;11.30;;;5.07;;
2061;SDS011;11070;51.336;12.340;2023-05-10T07:19:40;7.80;;;5.47;;
2061;SDS011;11070;51.336;12.340;2023-05-10T07:22:06;5.87;;;5.33;;
2061;SDS011;11070;51.336;12.340;2023-05-10T07:24:32;8.82;;;5.53;;
2061;SDS011;11070;51.336;12.340;2023-05-10T07:26:58;6.65;;;5.30;;
2061;SDS011;11070;51.336;12.340;2023-05-10T07:29:24;6.60;;;6.00;;
2061;SDS011;11070;51.336;12.340;2023-05-10T07:31:50;6.32;;;5.72;;
2061;SDS011;11070;51.336;12.340;2023-05-10T07:34:16;6.40;;;5.80;;
2061;SDS011;11070;51.336;12.340;2023-05-10T07:36:42;7.37;;;5.40;;
2061;SDS011;11070;51.336;12.340;2023-05-10T07:39:08;9.10;;;6.00;;
2061;SDS011;11070;51.336;12.340;2023-05-10T07:41:33;5.82;;;5.22;;
2061;SDS011;11070;51.336;12.340;2023-05-10T07:43:59;11.13;;;5.80;;
2061;SDS011;11070;51.336;12.340;2023-05-10T07:46:25;5.67;;;5.23;;
2061;SDS011;11070;51.336;12.340;2023-05-10T07:48:50;8.30;;;6.00;;
2061;SDS011;11070;51.336;12.340;2023-05-10T07:51:16;7.13;;;6.27;;
2061;SDS011;11070;51.336;12.340;2023-05-10T07:53:42;6.30;;;5.80;;
2061;SDS011;11070;51.336;12.340;2023-05-10T07:56:27;7.70;;;6.00;;
2061;SDS011;11070;51.336;12.340;2023-05-10T07:58:55;7.20;;;6.43;;
2061;SDS011;11070;51.336;12.340;2023-05-10T08:01:21;6.43;;;5.82;;
2061;SDS011;11070;51.336;12.340;2023-05-10T08:03:47;8.45;;;6.25;;
2061;SDS011;11070;51.336;12.340;2023-05-10T08:06:14;6.53;;;5.93;;
2061;SDS011;11070;51.336;12.340;2023-05-10T08:08:40;7.65;;;5.60;;
2061;SDS011;11070;51.336;12.340;2023-05-10T08:11:07;6.45;;;5.95;;
2061;SDS011;11070;51.336;12.340;2023-05-10T08:13:32;7.43;;;6.70;;
2061;SDS011;11070;51.336;12.340;2023-05-10T08:15:58;8.38;;;6.10;;
2061;SDS011;11070;51.336;12.340;2023-05-10T08:18:25;6.45;;;5.95;;
2061;SDS011;11070;51.336;12.340;2023-05-10T08:20:51;6.93;;;6.20;;
2061;SDS011;11070;51.336;12.340;2023-05-10T08:23:17;8.80;;;6.43;;
2061;SDS011;11070;51.336;12.340;2023-05-10T08:25:42;6.80;;;6.20;;
2061;SDS011;11070;51.336;12.340;2023-05-10T08:28:08;6.80;;;6.20;;
2061;SDS011;11070;51.336;12.340;2023-05-10T08:30:33;7.57;;;6.77;;
2061;SDS011;11070;51.336;12.340;2023-05-10T08:32:59;6.93;;;6.20;;
2061;SDS011;11070;51.336;12.340;2023-05-10T08:35:25;7.13;;;6.53;;
2061;SDS011;11070;51.336;12.340;2023-05-10T08:37:50;6.90;;;6.30;;
2061;SDS011;11070;51.336;12.340;2023-05-10T08:40:16;6.77;;;5.73;;
2061;SDS011;11070;51.336;12.340;2023-05-10T08:42:48;7.65;;;6.82;;
2061;SDS011;11070;51.336;12.340;2023-05-10T08:45:21;8.10;;;6.97;;
2061;SDS011;11070;51.336;12.340;2023-05-10T08:47:48;9.20;;;7.50;;
2061;SDS011;11070;51.336;12.340;2023-05-10T08:50:15;8.45;;;6.68;;
2061;SDS011;11070;51.336;12.340;2023-05-10T08:52:45;7.70;;;6.90;;
2061;SDS011;11070;51.336;12.340;2023-05-10T08:55:13;8.90;;;7.00;;
2061;SDS011;11070;51.336;12.340;2023-05-10T08:57:40;7.60;;;6.90;;
2061;SDS011;11070;51.336;12.340;2023-05-10T09:00:06;9.43;;;6.80;;
2061;SDS011;11070;51.336;12.340;2023-05-10T09:02:32;8.07;;;7.28;;
2061;SDS011;11070;51.336;12.340;2023-05-10T09:05:00;9.27;;;8.23;;
2061;SDS011;11070;51.336;12.340;2023-05-10T09:07:26;12.23;;;8.47;;
2061;SDS011;11070;51.336;12.340;2023-05-10T09:09:52;8.95;;;8.15;;
2061;SDS011;11070;51.336;12.340;2023-05-10T09:12:18;10.05;;;8.25;;
2061;SDS011;11070;51.336;12.340;2023-05-10T09:14:44;8.63;;;7.37;;
2061;SDS011;11070;51.336;12.340;2023-05-10T09:17:11;9.40;;;8.40;;
2061;SDS011;11070;51.336;12.340;2023-05-10T09:19:37;10.80;;;8.70;;
2061;SDS011;11070;51.336;12.340;2023-05-10T09:22:03;9.30;;;8.40;;
2061;SDS011;11070;51.336;12.340;2023-05-10T09:24:29;13.30;;;8.57;;
2061;SDS011;11070;51.336;12.340;2023-05-10T09:26:56;10.13;;;9.13;;
2061;SDS011;11070;51.336;12.340;2023-05-10T09:29:23;9.50;;;8.60;;
2061;SDS011;11070;51.336;12.340;2023-05-10T09:31:52;10.60;;;9.60;;
2061;SDS011;11070;51.336;12.340;2023-05-10T09:34:28;11.05;;;9.68;;
2061;SDS011;11070;51.336;12.340;2023-05-10T09:36:57;10.23;;;9.10;;
2061;SDS011;11070;51.336;12.340;2023-05-10T09:39:35;9.68;;;8.38;;
2061;SDS011;11070;51.336;12.340;2023-05-10T09:42:06;10.70;;;9.50;;
2061;SDS011;11070;51.336;12.340;2023-05-10T09:44:33;9.45;;;8.55;;
2061;SDS011;11070;51.336;12.340;2023-05-10T09:47:00;9.82;;;8.93;;
2061;SDS011;11070;51.336;12.340;2023-05-10T09:49:26;10.05;;;9.15;;
2061;SDS011;11070;51.336;12.340;2023-05-10T09:52:02;10.32;;;9.25;;
2061;SDS011;11070;51.336;12.340;2023-05-10T09:54:29;9.90;;;8.75;;
2061;SDS011;11070;51.336;12.340;2023-05-10T09:56:55;11.23;;;9.43;;
2061;SDS011;11070;51.336;12.340;2023-05-10T09:59:21;10.30;;;9.30;;
2061;SDS011;11070;51.336;12.340;2023-05-10T10:01:51;14.70;;;9.48;;
2061;SDS011;11070;51.336;12.340;2023-05-10T10:04:17;10.45;;;9.35;;
2061;SDS011;11070;51.336;12.340;2023-05-10T10:06:44;11.90;;;10.25;;
2061;SDS011;11070;51.336;12.340;2023-05-10T10:09:10;11.13;;;10.03;;
2061;SDS011;11070;51.336;12.340;2023-05-10T10:11:37;11.50;;;9.93;;
2061;SDS011;11070;51.336;12.340;2023-05-10T10:14:04;11.30;;;10.10;;
2061;SDS011;11070;51.336;12.340;2023-05-10T10:16:30;11.73;;;10.52;;
2061;SDS011;11070;51.336;12.340;2023-05-10T10:18:57;10.88;;;9.82;;
2061;SDS011;11070;51.336;12.340;2023-05-10T10:21:23;11.53;;;10.33;;
2061;SDS011;11070;51.336;12.340;2023-05-10T10:23:49;12.15;;;10.60;;
2061;SDS011;11070;51.336;12.340;2023-05-10T10:26:15;11.57;;;10.18;;
2061;SDS011;11070;51.336;12.340;2023-05-10T10:31:46;11.63;;;10.45;;
2061;SDS011;11070;51.336;12.340;2023-05-10T10:34:26;10.57;;;9.57;;
2061;SDS011;11070;51.336;12.340;2023-05-10T10:36:53;11.55;;;10.45;;
2061;SDS011;11070;51.336;12.340;2023-05-10T10:39:21;11.75;;;10.50;;
2061;SDS011;11070;51.336;12.340;2023-05-10T10:41:51;11.77;;;10.55;;
2061;SDS011;11070;51.336;12.340;2023-05-10T10:52:15;11.93;;;10.23;;
2061;SDS011;11070;51.336;12.340;2023-05-10T10:54:51;17.67;;;12.25;;
2061;SDS011;11070;51.336;12.340;2023-05-10T10:57:21;14.63;;;11.60;;
2061;SDS011;11070;51.336;12.340;2023-05-10T10:59:47;12.63;;;11.17;;
2061;SDS011;11070;51.336;12.340;2023-05-10T11:02:43;13.03;;;11.73;;
2061;SDS011;11070;51.336;12.340;2023-05-10T11:05:23;13.25;;;11.60;;
2061;SDS011;11070;51.336;12.340;2023-05-10T11:07:56;14.57;;;12.25;;
2061;SDS011;11070;51.336;12.340;2023-05-10T11:10:23;12.73;;;11.38;;
2061;SDS011;11070;51.336;12.340;2023-05-10T11:15:32;14.52;;;12.15;;
2061;SDS011;11070;51.336;12.340;2023-05-10T11:17:59;13.88;;;12.35;;
2061;SDS011;11070;51.336;12.340;2023-05-10T11:20:45;12.60;;;11.40;;
2061;SDS011;11070;51.336;12.340;2023-05-10T11:23:16;12.75;;;11.45;;
2061;SDS011;11070;51.336;12.340;2023-05-10T11:25:43;13.63;;;11.20;;
2061;SDS011;11070;51.336;12.340;2023-05-10T11:28:10;12.98;;;11.35;;
2061;SDS011;11070;51.336;12.340;2023-05-10T11:30:39;13.60;;;10.85;;
2061;SDS011;11070;51.336;12.340;2023-05-10T11:33:06;10.82;;;9.82;;
2061;SDS011;11070;51.336;12.340;2023-05-10T11:35:38;13.65;;;11.77;;
2061;SDS011;11070;51.336;12.340;2023-05-10T11:38:05;13.05;;;11.73;;
2061;SDS011;11070;51.336;12.340;2023-05-10T11:40:35;11.90;;;10.70;;
2061;SDS011;11070;51.336;12.340;2023-05-10T11:43:02;14.52;;;12.00;;
2061;SDS011;11070;51.336;12.340;2023-05-10T11:45:31;12.88;;;11.57;;
2061;SDS011;11070;51.336;12.340;2023-05-10T11:47:58;12.82;;;11.52;;
2061;SDS011;11070;51.336;12.340;2023-05-10T11:50:24;13.88;;;12.48;;
2061;SDS011;11070;51.336;12.340;2023-05-10T11:52:54;12.65;;;11.45;;
2061;SDS011;11070;51.336;12.340;2023-05-10T11:55:21;14.68;;;13.18;;
2061;SDS011;11070;51.336;12.340;2023-05-10T11:57:52;14.70;;;13.20;;
2061;SDS011;11070;51.336;12.340;2023-05-10T12:00:25;16.75;;;14.98;;
2061;SDS011;11070;51.336;12.340;2023-05-10T12:02:51;13.23;;;11.97;;
2061;SDS011;11070;51.336;12.340;2023-05-10T12:05:16;13.77;;;12.43;;
2061;SDS011;11070;51.336;12.340;2023-05-10T12:07:42;13.80;;;12.40;;
2061;SDS011;11070;51.336;12.340;2023-05-10T12:10:09;14.17;;;12.73;;
2061;SDS011;11070;51.336;12.340;2023-05-10T12:12:45;18.67;;;12.90;;
2061;SDS011;11070;51.336;12.340;2023-05-10T12:17:48;14.88;;;13.38;;
2061;SDS011;11070;51.336;12.340;2023-05-10T12:20:22;15.00;;;13.48;;
2061;SDS011;11070;51.336;12.340;2023-05-10T12:22:49;13.98;;;12.45;;
2061;SDS011;11070;51.336;12.340;2023-05-10T12:25:23;14.30;;;12.57;;
2061;SDS011;11070;51.336;12.340;2023-05-10T12:27:55;14.82;;;13.32;;
2061;SDS011;11070;51.336;12.340;2023-05-10T12:30:25;14.27;;;12.88;;
2061;SDS011;11070;51.336;12.340;2023-05-10T12:32:53;13.95;;;12.38;;
2061;SDS011;11070;51.336;12.340;2023-05-10T12:35:24;15.10;;;13.60;;
2061;SDS011;11070;51.336;12.340;2023-05-10T12:37:52;14.40;;;13.13;;
2061;SDS011;11070;51.336;12.340;2023-05-10T12:40:18;13.50;;;12.20;;
2061;SDS011;11070;51.336;12.340;2023-05-10T12:42:44;14.90;;;13.37;;
2061;SDS011;11070;51.336;12.340;2023-05-10T12:45:10;13.40;;;12.00;;
2061;SDS011;11070;51.336;12.340;2023-05-10T12:47:36;13.45;;;12.18;;
2061;SDS011;11070;51.336;12.340;2023-05-10T12:50:02;13.65;;;12.25;;
2061;SDS011;11070;51.336;12.340;2023-05-10T12:52:28;13.52;;;12.20;;
2061;SDS011;11070;51.336;12.340;2023-05-10T12:54:54;12.10;;;10.90;;
2061;SDS011;11070;51.336;12.340;2023-05-10T12:57:20;11.10;;;10.10;;
2061;SDS011;11070;51.336;12.340;2023-05-10T12:59:46;11.95;;;10.75;;
2061;SDS011;11070;51.336;12.340;2023-05-10T13:02:12;11.67;;;10.57;;
2061;SDS011;11070;51.336;12.340;2023-05-10T13:04:39;14.23;;;11.30;;
2061;SDS011;11070;51.336;12.340;2023-05-10T13:07:08;13.02;;;11.73;;
2061;SDS011;11070;51.336;12.340;2023-05-10T13:09:34;11.93;;;10.73;;
2061;SDS011;11070;51.336;12.340;2023-05-10T13:12:00;13.40;;;11.90;;
2061;SDS011;11070;51.336;12.340;2023-05-10T13:14:26;11.95;;;10.85;;
2061;SDS011;11070;51.336;12.340;2023-05-10T13:16:52;12.73;;;11.43;;
2061;SDS011;11070;51.336;12.340;2023-05-10T13:19:18;10.75;;;9.75;;
2061;SDS011;11070;51.336;12.340;2023-05-10T13:21:44;10.67;;;9.63;;
2061;SDS011;11070;51.336;12.340;2023-05-10T13:24:10;11.70;;;10.60;;
2061;SDS011;11070;51.336;12.340;2023-05-10T13:26:38;11.30;;;10.10;;
2061;SDS011;11070;51.336;12.340;2023-05-10T13:29:05;10.75;;;9.85;;
2061;SDS011;11070;51.336;12.340;2023-05-10T13:31:31;10.30;;;9.30;;
2061;SDS011;11070;51.336;12.340;2023-05-10T13:33:56;10.43;;;9.17;;
2061;SDS011;11070;51.336;12.340;2023-05-10T13:36:22;10.20;;;9.30;;
2061;SDS011;11070;51.336;12.340;2023-05-10T13:38:48;10.70;;;9.70;;
2061;SDS011;11070;51.336;12.340;2023-05-10T13:41:13;11.20;;;10.20;;
2061;SDS011;11070;51.336;12.340;2023-05-10T13:43:39;10.60;;;9.70;;
2061;SDS011;11070;51.336;12.340;2023-05-10T13:46:05;10.40;;;9.40;;
2061;SDS011;11070;51.336;12.340;2023-05-10T13:48:30;9.63;;;8.73;;
2061;SDS011;11070;51.336;12.340;2023-05-10T13:50:56;10.13;;;9.30;;
2061;SDS011;11070;51.336;12.340;2023-05-10T13:53:22;10.80;;;9.80;;
2061;SDS011;11070;51.336;12.340;2023-05-10T13:55:47;10.00;;;9.10;;
2061;SDS011;11070;51.336;12.340;2023-05-10T13:58:13;10.57;;;9.60;;
2061;SDS011;11070;51.336;12.340;2023-05-10T14:00:39;11.73;;;10.23;;
2061;SDS011;11070;51.336;12.340;2023-05-10T14:03:05;9.60;;;5.77;;
2061;SDS011;11070;51.336;12.340;2023-05-10T14:05:31;5.78;;;5.28;;
2061;SDS011;11070;51.336;12.340;2023-05-10T14:07:57;5.30;;;4.90;;
2061;SDS011;11070;51.336;12.340;2023-05-10T14:10:23;4.10;;;3.90;;
2061;SDS011;11070;51.336;12.340;2023-05-10T14:12:49;5.00;;;4.60;;
2061;SDS011;11070;51.336;12.340;2023-05-10T14:15:15;6.35;;;5.75;;
2061;SDS011;11070;51.336;12.340;2023-05-10T14:17:41;4.33;;;4.00;;
2061;SDS011;11070;51.336;12.340;2023-05-10T14:20:07;4.37;;;3.97;;
2061;SDS011;11070;51.336;12.340;2023-05-10T14:22:33;3.60;;;3.40;;
2061;SDS011;11070;51.336;12.340;2023-05-10T14:24:59;4.85;;;3.53;;
2061;SDS011;11070;51.336;12.340;2023-05-10T14:27:25;4.47;;;4.07;;
2061;SDS011;11070;51.336;12.340;2023-05-10T14:29:51;4.70;;;4.30;;
2061;SDS011;11070;51.336;12.340;2023-05-10T14:32:18;4.85;;;4.45;;
2061;SDS011;11070;51.336;12.340;2023-05-10T14:34:43;6.20;;;5.40;;
2061;SDS011;11070;51.336;12.340;2023-05-10T14:37:13;6.87;;;5.23;;
2061;SDS011;11070;51.336;12.340;2023-05-10T14:39:40;6.22;;;5.70;;
2061;SDS011;11070;51.336;12.340;2023-05-10T14:42:07;6.22;;;5.80;;
2061;SDS011;11070;51.336;12.340;2023-05-10T14:44:33;6.50;;;5.90;;
2061;SDS011;11070;51.336;12.340;2023-05-10T14:46:59;7.10;;;6.33;;
2061;SDS011;11070;51.336;12.340;2023-05-10T14:49:24;6.70;;;6.10;;
2061;SDS011;11070;51.336;12.340;2023-05-10T14:51:51;7.85;;;7.15;;
2061;SDS011;11070;51.336;12.340;2023-05-10T14:54:17;6.97;;;6.35;;
2061;SDS011;11070;51.336;12.340;2023-05-10T14:56:42;6.97;;;6.37;;
2061;SDS011;11070;51.336;12.340;2023-05-10T14:59:08;4.67;;;4.37;;
2061;SDS011;11070;51.336;12.340;2023-05-10T15:01:34;6.20;;;5.60;;
2061;SDS011;11070;51.336;12.340;2023-05-10T15:04:02;3.30;;;3.10;;
2061;SDS011;11070;51.336;12.340;2023-05-10T15:06:31;4.00;;;3.70;;
2061;SDS011;11070;51.336;12.340;2023-05-10T15:09:00;4.00;;;3.70;;
2061;SDS011;11070;51.336;12.340;2023-05-10T15:11:28;4.20;;;3.90;;
2061;SDS011;11070;51.336;12.340;2023-05-10T15:13:54;4.10;;;3.70;;